createdAt,value
2023-01-06T00:00:09.769Z,7.27
2023-01-06T00:00:23.748Z,7.27
2023-01-06T00:00:45.171Z,7.27
2023-01-06T00:01:11.622Z,7.27
2023-01-06T00:01:36.616Z,7.27
2023-01-06T00:01:58.921Z,7.27
2023-01-06T00:02:30.863Z,7.27
2023-01-06T00:03:03.680Z,7.27
2023-01-06T00:03:35.867Z,7.27
2023-01-06T00:04:06.744Z,7.27
2023-01-06T00:04:23.733Z,7.27
2023-01-06T00:04:44.536Z,7.27
2023-01-06T00:05:11.481Z,7.27
2023-01-06T00:05:36.738Z,7.27
2023-01-06T00:05:59.628Z,7.27
2023-01-06T00:06:30.953Z,7.27
2023-01-06T00:07:03.708Z,7.27
2023-01-06T00:07:34.848Z,7.27
2023-01-06T00:08:06.794Z,7.27
2023-01-06T00:08:23.718Z,7.27
2023-01-06T00:08:44.183Z,7.27
2023-01-06T00:09:10.998Z,7.27
2023-01-06T00:09:36.655Z,7.27
2023-01-06T00:09:58.670Z,7.27
2023-01-06T00:10:31.184Z,7.27
2023-01-06T00:11:03.887Z,7.27
2023-01-06T00:11:34.908Z,7.22
2023-01-06T00:12:06.774Z,7.22
2023-01-06T00:12:23.636Z,7.22
2023-01-06T00:12:44.119Z,7.22
2023-01-06T00:13:11.602Z,7.22
2023-01-06T00:13:36.695Z,7.22
2023-01-06T00:13:59.003Z,7.22
2023-01-06T00:14:30.806Z,7.22
2023-01-06T00:15:06.174Z,7.22
2023-01-06T00:15:34.981Z,7.22
2023-01-06T00:16:06.976Z,7.22
2023-01-06T00:16:23.580Z,7.22
2023-01-06T00:16:44.656Z,7.22
2023-01-06T00:17:11.111Z,7.22
2023-01-06T00:17:36.731Z,7.22
2023-01-06T00:17:58.900Z,7.22
2023-01-06T00:18:30.811Z,7.22
2023-01-06T00:19:03.618Z,7.22
2023-01-06T00:19:35.370Z,7.22
2023-01-06T00:20:08.915Z,7.22
2023-01-06T00:20:23.719Z,7.22
2023-01-06T00:20:44.892Z,7.22
2023-01-06T00:21:10.885Z,7.22
2023-01-06T00:21:36.690Z,7.22
2023-01-06T00:21:58.799Z,7.22
2023-01-06T00:22:30.868Z,7.22
2023-01-06T00:23:03.713Z,7.22
2023-01-06T00:23:35.174Z,7.22
2023-01-06T00:24:06.873Z,7.22
2023-01-06T00:24:23.560Z,7.22
2023-01-06T00:24:44.578Z,7.22
2023-01-06T00:25:12.119Z,7.22
2023-01-06T00:25:36.580Z,7.22
2023-01-06T00:25:59.220Z,7.22
2023-01-06T00:26:30.975Z,7.11
2023-01-06T00:27:03.716Z,7.11
2023-01-06T00:27:34.933Z,7.22
2023-01-06T00:28:06.943Z,7.22
2023-01-06T00:28:23.719Z,7.22
2023-01-06T00:28:44.420Z,7.22
2023-01-06T00:29:11.626Z,7.22
2023-01-06T00:29:36.841Z,7.22
2023-01-06T00:29:58.692Z,7.22
2023-01-06T00:30:31.872Z,7.22
2023-01-06T00:31:03.750Z,7.22
2023-01-06T00:31:34.799Z,7.22
2023-01-06T00:32:06.841Z,7.22
2023-01-06T00:32:23.565Z,7.22
2023-01-06T00:32:44.077Z,7.22
2023-01-06T00:33:11.079Z,7.22
2023-01-06T00:33:36.989Z,7.22
2023-01-06T00:33:59.398Z,7.22
2023-01-06T00:34:30.934Z,7.22
2023-01-06T00:35:04.989Z,7.22
2023-01-06T00:35:34.875Z,7.22
2023-01-06T00:36:06.809Z,7.22
2023-01-06T00:36:23.530Z,7.22
2023-01-06T00:36:44.540Z,7.22
2023-01-06T00:37:10.992Z,7.22
2023-01-06T00:37:36.714Z,7.22
2023-01-06T00:37:59.647Z,7.22
2023-01-06T00:38:30.906Z,7.22
2023-01-06T00:39:03.711Z,7.22
2023-01-06T00:39:35.391Z,7.22
2023-01-06T00:40:07.893Z,7.22
2023-01-06T00:40:23.730Z,7.22
2023-01-06T00:40:44.946Z,7.22
2023-01-06T00:41:11.207Z,7.22
2023-01-06T00:41:36.789Z,7.22
2023-01-06T00:41:58.937Z,7.22
2023-01-06T00:42:30.815Z,7.22
2023-01-06T00:43:03.676Z,7.22
2023-01-06T00:43:34.859Z,7.22
2023-01-06T00:44:06.883Z,7.22
2023-01-06T00:44:24.017Z,7.22
2023-01-06T00:44:44.558Z,7.22
2023-01-06T00:45:15.515Z,7.22
2023-01-06T00:45:36.771Z,7.22
2023-01-06T00:45:59.297Z,7.22
2023-01-06T00:46:30.930Z,7.22
2023-01-06T00:47:03.727Z,7.22
2023-01-06T00:47:35.385Z,7.22
2023-01-06T00:48:06.923Z,7.27
2023-01-06T00:48:23.730Z,7.27
2023-01-06T00:48:56.621Z,7.27
2023-01-06T00:49:11.043Z,7.27
2023-01-06T00:49:36.638Z,7.27
2023-01-06T00:49:58.701Z,7.27
2023-01-06T00:50:31.405Z,7.27
2023-01-06T00:51:03.650Z,7.27
2023-01-06T00:51:34.874Z,7.22
2023-01-06T00:52:07.058Z,7.22
2023-01-06T00:52:23.672Z,7.22
2023-01-06T00:52:44.052Z,7.22
2023-01-06T00:53:11.286Z,7.22
2023-01-06T00:53:36.735Z,7.22
2023-01-06T00:53:58.775Z,7.22
2023-01-06T00:54:30.745Z,7.22
2023-01-06T00:55:04.911Z,7.22
2023-01-06T00:55:34.965Z,7.22
2023-01-06T00:56:06.752Z,7.22
2023-01-06T00:56:23.975Z,7.22
2023-01-06T00:56:44.119Z,7.22
2023-01-06T00:57:10.996Z,7.22
2023-01-06T00:57:37.323Z,7.22
2023-01-06T00:57:58.788Z,7.22
2023-01-06T00:58:30.953Z,7.22
2023-01-06T00:59:03.705Z,7.22
2023-01-06T00:59:34.846Z,7.22
2023-01-06T01:00:09.053Z,7.22
2023-01-06T01:00:24.023Z,7.22
2023-01-06T01:00:44.997Z,7.22
2023-01-06T01:01:11.634Z,7.22
2023-01-06T01:01:36.848Z,7.22
2023-01-06T01:01:58.937Z,7.22
2023-01-06T01:02:31.013Z,7.22
2023-01-06T01:03:04.013Z,7.22
2023-01-06T01:03:35.199Z,7.22
2023-01-06T01:04:06.926Z,7.22
2023-01-06T01:04:23.846Z,7.22
2023-01-06T01:04:44.790Z,7.22
2023-01-06T01:05:11.933Z,7.22
2023-01-06T01:05:37.059Z,7.22
2023-01-06T01:05:59.229Z,7.22
2023-01-06T01:06:31.007Z,7.22
2023-01-06T01:07:03.693Z,7.22
2023-01-06T01:07:34.941Z,7.22
2023-01-06T01:08:06.918Z,7.22
2023-01-06T01:08:23.558Z,7.22
2023-01-06T01:08:44.117Z,7.22
2023-01-06T01:09:11.075Z,7.22
2023-01-06T01:09:36.821Z,7.22
2023-01-06T01:09:58.671Z,7.22
2023-01-06T01:10:31.504Z,7.22
2023-01-06T01:11:04.139Z,7.22
2023-01-06T01:11:34.981Z,7.22
2023-01-06T01:12:06.966Z,7.22
2023-01-06T01:12:23.661Z,7.22
2023-01-06T01:12:44.606Z,7.22
2023-01-06T01:13:11.140Z,7.22
2023-01-06T01:13:36.957Z,7.22
2023-01-06T01:13:58.974Z,7.22
2023-01-06T01:14:31.425Z,7.11
2023-01-06T01:15:06.036Z,7.22
2023-01-06T01:15:35.381Z,7.11
2023-01-06T01:16:06.876Z,7.11
2023-01-06T01:16:23.647Z,7.11
2023-01-06T01:16:44.643Z,7.11
2023-01-06T01:17:11.049Z,7.11
2023-01-06T01:17:36.868Z,7.11
2023-01-06T01:17:59.709Z,7.22
2023-01-06T01:18:30.905Z,7.22
2023-01-06T01:19:03.660Z,7.22
2023-01-06T01:19:35.634Z,7.22
2023-01-06T01:20:08.479Z,7.22
2023-01-06T01:20:23.714Z,7.22
2023-01-06T01:20:45.212Z,7.22
2023-01-06T01:21:11.008Z,7.22
2023-01-06T01:21:37.049Z,7.22
2023-01-06T01:21:58.734Z,7.22
2023-01-06T01:22:30.888Z,7.22
2023-01-06T01:23:03.808Z,7.22
2023-01-06T01:23:35.989Z,7.22
2023-01-06T01:24:06.924Z,7.22
2023-01-06T01:24:23.662Z,7.22
2023-01-06T01:24:44.184Z,7.22
2023-01-06T01:25:11.822Z,7.22
2023-01-06T01:25:37.121Z,7.22
2023-01-06T01:25:59.874Z,7.22
2023-01-06T01:26:30.766Z,7.22
2023-01-06T01:27:03.895Z,7.22
2023-01-06T01:27:35.394Z,7.22
2023-01-06T01:28:06.942Z,7.22
2023-01-06T01:28:23.599Z,7.22
2023-01-06T01:28:44.087Z,7.22
2023-01-06T01:29:11.240Z,7.22
2023-01-06T01:29:36.764Z,7.22
2023-01-06T01:29:58.715Z,7.22
2023-01-06T01:30:32.030Z,7.22
2023-01-06T01:31:03.780Z,7.22
2023-01-06T01:31:34.957Z,7.22
2023-01-06T01:32:06.802Z,7.22
2023-01-06T01:32:23.606Z,7.22
2023-01-06T01:32:44.146Z,7.22
2023-01-06T01:33:10.980Z,7.27
2023-01-06T01:33:37.023Z,7.27
2023-01-06T01:33:58.927Z,7.27
2023-01-06T01:34:30.846Z,7.27
2023-01-06T01:35:05.065Z,7.27
2023-01-06T01:35:35.639Z,7.27
2023-01-06T01:36:06.751Z,7.27
2023-01-06T01:36:24.565Z,7.27
2023-01-06T01:36:45.003Z,7.27
2023-01-06T01:37:11.061Z,7.22
2023-01-06T01:37:36.823Z,7.22
2023-01-06T01:37:59.510Z,7.22
2023-01-06T01:38:30.773Z,7.22
2023-01-06T01:39:04.277Z,7.22
2023-01-06T01:39:35.124Z,7.22
2023-01-06T01:40:07.541Z,7.22
2023-01-06T01:40:23.657Z,7.22
2023-01-06T01:40:45.383Z,7.22
2023-01-06T01:41:10.883Z,7.22
2023-01-06T01:41:36.791Z,7.22
2023-01-06T01:42:04.382Z,7.22
2023-01-06T01:42:31.049Z,7.22
2023-01-06T01:43:03.780Z,7.22
2023-01-06T01:43:35.036Z,7.22
2023-01-06T01:44:06.864Z,7.22
2023-01-06T01:44:23.741Z,7.22
2023-01-06T01:44:45.011Z,7.22
2023-01-06T01:45:12.124Z,7.22
2023-01-06T01:45:36.835Z,7.22
2023-01-06T01:45:59.345Z,7.22
2023-01-06T01:46:31.189Z,7.22
2023-01-06T01:47:03.723Z,7.22
2023-01-06T01:47:34.880Z,7.22
2023-01-06T01:48:06.897Z,7.11
2023-01-06T01:48:23.591Z,7.11
2023-01-06T01:48:44.129Z,7.11
2023-01-06T01:49:11.167Z,7.11
2023-01-06T01:49:36.792Z,7.11
2023-01-06T01:49:59.080Z,7.11
2023-01-06T01:50:31.474Z,7.11
2023-01-06T01:51:03.735Z,7.11
2023-01-06T01:51:34.927Z,7.11
2023-01-06T01:52:06.882Z,7.22
2023-01-06T01:52:23.698Z,7.22
2023-01-06T01:52:45.012Z,7.22
2023-01-06T01:53:11.481Z,7.22
2023-01-06T01:53:36.853Z,7.22
2023-01-06T01:53:58.879Z,7.22
2023-01-06T01:54:30.908Z,7.22
2023-01-06T01:55:05.263Z,7.22
2023-01-06T01:55:34.999Z,7.22
2023-01-06T01:56:06.903Z,7.22
2023-01-06T01:56:23.667Z,7.22
2023-01-06T01:56:44.616Z,7.22
2023-01-06T01:57:11.224Z,7.22
2023-01-06T01:57:37.319Z,7.27
2023-01-06T01:57:58.783Z,7.27
2023-01-06T01:58:30.754Z,7.27
2023-01-06T01:59:03.697Z,7.27
2023-01-06T01:59:34.986Z,7.27
2023-01-06T02:00:09.115Z,7.27
2023-01-06T02:00:23.734Z,7.27
2023-01-06T02:00:44.904Z,7.27
2023-01-06T02:01:11.300Z,7.27
2023-01-06T02:01:36.795Z,7.27
2023-01-06T02:01:59.116Z,7.27
2023-01-06T02:02:30.896Z,7.27
2023-01-06T02:03:03.835Z,7.27
2023-01-06T02:03:34.913Z,7.27
2023-01-06T02:04:06.927Z,7.27
2023-01-06T02:04:23.664Z,7.27
2023-01-06T02:04:45.158Z,7.27
2023-01-06T02:05:11.290Z,7.27
2023-01-06T02:05:36.950Z,7.27
2023-01-06T02:06:00.096Z,7.27
2023-01-06T02:06:30.825Z,7.27
2023-01-06T02:07:03.732Z,7.27
2023-01-06T02:07:35.215Z,7.27
2023-01-06T02:08:06.871Z,7.38
2023-01-06T02:08:23.660Z,7.38
2023-01-06T02:08:44.619Z,7.38
2023-01-06T02:09:10.943Z,7.38
2023-01-06T02:09:37.311Z,7.38
2023-01-06T02:09:58.847Z,7.38
2023-01-06T02:10:31.265Z,7.38
2023-01-06T02:11:03.869Z,7.38
2023-01-06T02:11:34.832Z,7.38
2023-01-06T02:12:06.899Z,7.38
2023-01-06T02:12:23.838Z,7.38
2023-01-06T02:12:44.613Z,7.38
2023-01-06T02:13:11.098Z,7.38
2023-01-06T02:13:36.790Z,7.38
2023-01-06T02:13:59.596Z,7.38
2023-01-06T02:14:30.758Z,7.38
2023-01-06T02:15:05.704Z,7.38
2023-01-06T02:15:34.956Z,7.38
2023-01-06T02:16:06.930Z,7.38
2023-01-06T02:16:23.819Z,7.38
2023-01-06T02:16:44.224Z,7.38
2023-01-06T02:17:11.033Z,7.38
2023-01-06T02:17:36.833Z,7.38
2023-01-06T02:18:00.183Z,7.38
2023-01-06T02:18:30.914Z,7.38
2023-01-06T02:19:03.754Z,7.38
2023-01-06T02:19:34.848Z,7.38
2023-01-06T02:20:08.278Z,7.38
2023-01-06T02:20:24.292Z,7.38
2023-01-06T02:20:44.581Z,7.38
2023-01-06T02:21:10.906Z,7.38
2023-01-06T02:21:37.075Z,7.38
2023-01-06T02:21:58.824Z,7.38
2023-01-06T02:22:30.829Z,7.38
2023-01-06T02:23:03.991Z,7.38
2023-01-06T02:23:34.845Z,7.38
2023-01-06T02:24:06.905Z,7.38
2023-01-06T02:24:23.750Z,7.38
2023-01-06T02:24:44.758Z,7.38
2023-01-06T02:25:11.419Z,7.38
2023-01-06T02:25:36.728Z,7.38
2023-01-06T02:25:59.432Z,7.38
2023-01-06T02:26:31.007Z,7.38
2023-01-06T02:27:04.065Z,7.38
2023-01-06T02:27:35.182Z,7.38
2023-01-06T02:28:07.058Z,7.38
2023-01-06T02:28:23.875Z,7.38
2023-01-06T02:28:44.113Z,7.38
2023-01-06T02:29:11.062Z,7.38
2023-01-06T02:29:36.859Z,7.38
2023-01-06T02:29:58.964Z,7.27
2023-01-06T02:30:31.080Z,7.27
2023-01-06T02:31:02.646Z,7.27
2023-01-06T02:31:33.848Z,7.27
2023-01-06T02:32:05.496Z,7.27
2023-01-06T02:32:22.746Z,7.27
2023-01-06T02:32:43.722Z,7.27
2023-01-06T02:33:09.739Z,7.27
2023-01-06T02:33:35.840Z,7.27
2023-01-06T02:34:02.839Z,7.27
2023-01-06T02:34:29.972Z,7.27
2023-01-06T02:35:03.152Z,7.27
2023-01-06T02:35:34.044Z,7.27
2023-01-06T02:36:05.421Z,7.27
2023-01-06T02:36:22.565Z,7.27
2023-01-06T02:36:43.868Z,7.27
2023-01-06T02:37:09.910Z,7.27
2023-01-06T02:37:35.765Z,7.27
2023-01-06T02:37:57.572Z,7.27
2023-01-06T02:38:30.111Z,7.27
2023-01-06T02:39:02.511Z,7.27
2023-01-06T02:39:33.515Z,7.27
2023-01-06T02:40:06.270Z,7.27
2023-01-06T02:40:22.840Z,7.27
2023-01-06T02:40:43.600Z,7.27
2023-01-06T02:41:09.982Z,7.27
2023-01-06T02:41:36.264Z,7.27
2023-01-06T02:41:57.910Z,7.27
2023-01-06T02:42:30.167Z,7.27
2023-01-06T02:43:02.334Z,7.22
2023-01-06T02:43:33.904Z,7.22
2023-01-06T02:44:05.999Z,7.22
2023-01-06T02:44:22.429Z,7.22
2023-01-06T02:44:42.986Z,7.22
2023-01-06T02:45:11.042Z,7.22
2023-01-06T02:45:35.352Z,7.22
2023-01-06T02:45:58.451Z,7.22
2023-01-06T02:46:29.947Z,7.22
2023-01-06T02:47:02.816Z,7.22
2023-01-06T02:47:33.784Z,7.22
2023-01-06T02:48:06.040Z,7.22
2023-01-06T02:48:22.292Z,7.22
2023-01-06T02:48:43.228Z,7.11
2023-01-06T02:49:10.182Z,7.11
2023-01-06T02:49:35.744Z,7.11
2023-01-06T02:49:57.627Z,7.11
2023-01-06T02:50:30.013Z,7.11
2023-01-06T02:51:03.020Z,7.11
2023-01-06T02:51:33.889Z,7.11
2023-01-06T02:52:05.999Z,7.11
2023-01-06T02:52:23.038Z,7.11
2023-01-06T02:52:43.964Z,7.11
2023-01-06T02:53:12.950Z,7.11
2023-01-06T02:53:37.537Z,7.11
2023-01-06T02:53:59.706Z,7.11
2023-01-06T02:54:31.280Z,7.11
2023-01-06T02:55:05.505Z,7.11
2023-01-06T02:55:35.135Z,7.11
2023-01-06T02:56:07.120Z,7.11
2023-01-06T02:56:23.871Z,7.11
2023-01-06T02:56:44.824Z,7.11
2023-01-06T02:57:10.826Z,7.11
2023-01-06T02:57:37.091Z,7.11
2023-01-06T02:57:58.953Z,7.11
2023-01-06T02:58:30.968Z,7.00
2023-01-06T02:59:03.867Z,7.00
2023-01-06T02:59:36.053Z,7.11
2023-01-06T03:00:09.627Z,7.11
2023-01-06T03:00:24.246Z,7.11
2023-01-06T03:00:45.225Z,7.11
2023-01-06T03:01:11.244Z,7.11
2023-01-06T03:01:37.472Z,7.11
2023-01-06T03:01:59.272Z,7.00
2023-01-06T03:02:31.549Z,7.00
2023-01-06T03:03:03.988Z,7.00
2023-01-06T03:03:34.935Z,7.00
2023-01-06T03:04:06.951Z,7.00
2023-01-06T03:04:23.771Z,7.00
2023-01-06T03:04:44.470Z,7.00
2023-01-06T03:05:11.356Z,7.00
2023-01-06T03:05:36.913Z,7.00
2023-01-06T03:05:59.255Z,7.00
2023-01-06T03:06:30.876Z,7.00
2023-01-06T03:07:03.745Z,7.00
2023-01-06T03:07:34.878Z,7.00
2023-01-06T03:08:09.926Z,7.00
2023-01-06T03:08:38.909Z,7.00
2023-01-06T03:09:10.826Z,7.00
2023-01-06T03:09:37.002Z,7.00
2023-01-06T03:09:59.162Z,7.00
2023-01-06T03:10:31.158Z,7.11
2023-01-06T03:11:03.810Z,7.11
2023-01-06T03:11:35.153Z,7.11
2023-01-06T03:12:06.837Z,7.11
2023-01-06T03:12:23.809Z,7.00
2023-01-06T03:12:44.377Z,7.11
2023-01-06T03:13:10.918Z,7.11
2023-01-06T03:13:37.091Z,7.11
2023-01-06T03:13:59.358Z,7.11
2023-01-06T03:14:30.887Z,7.11
2023-01-06T03:15:05.772Z,7.11
2023-01-06T03:15:35.025Z,7.11
2023-01-06T03:16:06.921Z,7.11
2023-01-06T03:16:23.898Z,7.11
2023-01-06T03:16:44.632Z,7.11
2023-01-06T03:17:10.890Z,7.11
2023-01-06T03:17:37.263Z,7.11
2023-01-06T03:17:58.925Z,7.11
2023-01-06T03:18:30.790Z,7.11
2023-01-06T03:19:03.662Z,7.11
2023-01-06T03:19:35.321Z,7.11
2023-01-06T03:20:08.491Z,7.11
2023-01-06T03:20:25.636Z,7.11
2023-01-06T03:20:45.123Z,7.11
2023-01-06T03:21:10.988Z,7.11
2023-01-06T03:21:36.749Z,7.11
2023-01-06T03:21:59.123Z,7.11
2023-01-06T03:22:31.035Z,7.11
2023-01-06T03:23:03.764Z,7.11
2023-01-06T03:23:35.445Z,7.11
2023-01-06T03:24:07.075Z,7.11
2023-01-06T03:24:24.063Z,7.11
2023-01-06T03:24:44.377Z,7.22
2023-01-06T03:25:11.238Z,7.22
2023-01-06T03:25:36.785Z,7.22
2023-01-06T03:25:59.337Z,7.22
2023-01-06T03:26:30.815Z,7.22
2023-01-06T03:27:03.752Z,7.22
2023-01-06T03:27:34.840Z,7.22
2023-01-06T03:28:07.085Z,7.22
2023-01-06T03:28:23.665Z,7.22
2023-01-06T03:28:44.549Z,7.22
2023-01-06T03:29:10.843Z,7.22
2023-01-06T03:29:37.275Z,7.22
2023-01-06T03:29:58.911Z,7.22
2023-01-06T03:30:31.733Z,7.22
2023-01-06T03:31:03.798Z,7.22
2023-01-06T03:31:35.921Z,7.22
2023-01-06T03:32:06.916Z,7.22
2023-01-06T03:32:23.999Z,7.22
2023-01-06T03:32:44.786Z,7.22
2023-01-06T03:33:10.856Z,7.22
2023-01-06T03:33:36.995Z,7.22
2023-01-06T03:33:59.508Z,7.22
2023-01-06T03:34:31.132Z,7.22
2023-01-06T03:35:04.862Z,7.22
2023-01-06T03:35:35.019Z,7.27
2023-01-06T03:36:06.908Z,7.27
2023-01-06T03:36:24.064Z,7.27
2023-01-06T03:36:44.432Z,7.27
2023-01-06T03:37:11.357Z,7.27
2023-01-06T03:37:36.768Z,7.27
2023-01-06T03:37:58.936Z,7.27
2023-01-06T03:38:30.892Z,7.27
2023-01-06T03:39:03.661Z,7.27
2023-01-06T03:39:34.941Z,7.27
2023-01-06T03:40:07.359Z,7.27
2023-01-06T03:40:23.730Z,7.27
2023-01-06T03:40:44.891Z,7.27
2023-01-06T03:41:11.210Z,7.27
2023-01-06T03:41:36.872Z,7.27
2023-01-06T03:41:58.933Z,7.27
2023-01-06T03:42:36.177Z,7.27
2023-01-06T03:43:03.887Z,7.27
2023-01-06T03:43:34.822Z,7.27
2023-01-06T03:44:06.873Z,7.27
2023-01-06T03:44:23.764Z,7.27
2023-01-06T03:44:44.354Z,7.27
2023-01-06T03:45:11.883Z,7.27
2023-01-06T03:45:37.365Z,7.38
2023-01-06T03:45:59.422Z,7.38
2023-01-06T03:46:31.172Z,7.38
2023-01-06T03:47:03.716Z,7.38
2023-01-06T03:47:35.452Z,7.38
2023-01-06T03:48:07.020Z,7.38
2023-01-06T03:48:24.007Z,7.38
2023-01-06T03:48:44.339Z,7.27
2023-01-06T03:49:10.768Z,7.38
2023-01-06T03:49:36.768Z,7.38
2023-01-06T03:49:58.823Z,7.38
2023-01-06T03:50:31.253Z,7.38
2023-01-06T03:51:03.798Z,7.38
2023-01-06T03:51:35.159Z,7.38
2023-01-06T03:52:07.079Z,7.38
2023-01-06T03:52:23.937Z,7.38
2023-01-06T03:52:44.617Z,7.38
2023-01-06T03:53:11.228Z,7.38
2023-01-06T03:53:37.260Z,7.38
2023-01-06T03:53:59.075Z,7.50
2023-01-06T03:54:31.011Z,7.50
2023-01-06T03:55:04.982Z,7.50
2023-01-06T03:55:34.890Z,7.50
2023-01-06T03:56:06.947Z,7.50
2023-01-06T03:56:23.741Z,7.50
2023-01-06T03:56:44.360Z,7.50
2023-01-06T03:57:10.881Z,7.50
2023-01-06T03:57:36.757Z,7.50
2023-01-06T03:57:58.847Z,7.50
2023-01-06T03:58:30.749Z,7.50
2023-01-06T03:59:03.828Z,7.50
2023-01-06T03:59:34.896Z,7.50
2023-01-06T04:00:09.313Z,7.50
2023-01-06T04:00:23.973Z,7.50
2023-01-06T04:00:45.009Z,7.50
2023-01-06T04:01:10.942Z,7.50
2023-01-06T04:01:37.055Z,7.50
2023-01-06T04:01:59.096Z,7.50
2023-01-06T04:02:30.857Z,7.50
2023-01-06T04:03:03.733Z,7.50
2023-01-06T04:03:35.220Z,7.50
2023-01-06T04:04:07.000Z,7.50
2023-01-06T04:04:23.659Z,7.50
2023-01-06T04:04:44.390Z,7.50
2023-01-06T04:05:11.305Z,7.50
2023-01-06T04:05:36.942Z,7.50
2023-01-06T04:05:59.798Z,7.38
2023-01-06T04:06:30.771Z,7.38
2023-01-06T04:07:03.773Z,7.38
2023-01-06T04:07:34.783Z,7.38
2023-01-06T04:08:06.955Z,7.38
2023-01-06T04:08:23.756Z,7.38
2023-01-06T04:08:44.515Z,7.38
2023-01-06T04:09:11.144Z,7.38
2023-01-06T04:09:36.833Z,7.38
2023-01-06T04:09:59.216Z,7.38
2023-01-06T04:10:31.170Z,7.38
2023-01-06T04:11:03.637Z,7.38
2023-01-06T04:11:34.761Z,7.38
2023-01-06T04:12:06.809Z,7.38
2023-01-06T04:12:24.096Z,7.38
2023-01-06T04:12:44.458Z,7.38
2023-01-06T04:13:10.741Z,7.50
2023-01-06T04:13:36.932Z,7.38
2023-01-06T04:13:58.886Z,7.50
2023-01-06T04:14:30.793Z,7.50
2023-01-06T04:15:05.489Z,7.50
2023-01-06T04:15:35.778Z,7.50
2023-01-06T04:16:06.962Z,7.50
2023-01-06T04:16:23.858Z,7.50
2023-01-06T04:16:44.477Z,7.50
2023-01-06T04:17:12.935Z,7.50
2023-01-06T04:17:36.862Z,7.50
2023-01-06T04:17:58.920Z,7.50
2023-01-06T04:18:30.792Z,7.50
2023-01-06T04:19:03.814Z,7.50
2023-01-06T04:19:35.476Z,7.50
2023-01-06T04:20:08.627Z,7.50
2023-01-06T04:20:23.781Z,7.50
2023-01-06T04:20:45.248Z,7.50
2023-01-06T04:21:10.948Z,7.50
2023-01-06T04:21:36.855Z,7.50
2023-01-06T04:21:59.045Z,7.50
2023-01-06T04:22:30.778Z,7.50
2023-01-06T04:23:04.119Z,7.50
2023-01-06T04:23:34.783Z,7.50
2023-01-06T04:24:06.880Z,7.50
2023-01-06T04:24:23.768Z,7.50
2023-01-06T04:24:44.386Z,7.50
2023-01-06T04:25:11.223Z,7.50
2023-01-06T04:25:36.796Z,7.50
2023-01-06T04:25:59.261Z,7.50
2023-01-06T04:26:30.753Z,7.50
2023-01-06T04:27:03.980Z,7.50
2023-01-06T04:27:34.813Z,7.50
2023-01-06T04:28:06.977Z,7.50
2023-01-06T04:28:23.832Z,7.50
2023-01-06T04:28:44.338Z,7.61
2023-01-06T04:29:10.780Z,7.61
2023-01-06T04:29:36.909Z,7.61
2023-01-06T04:29:59.423Z,7.61
2023-01-06T04:30:31.975Z,7.61
2023-01-06T04:31:03.649Z,7.61
2023-01-06T04:31:35.614Z,7.61
2023-01-06T04:32:07.327Z,7.61
2023-01-06T04:32:23.791Z,7.61
2023-01-06T04:32:44.390Z,7.61
2023-01-06T04:33:11.242Z,7.61
2023-01-06T04:33:37.569Z,7.61
2023-01-06T04:33:58.819Z,7.61
2023-01-06T04:34:30.837Z,7.72
2023-01-06T04:35:04.946Z,7.72
2023-01-06T04:35:34.903Z,7.72
2023-01-06T04:36:07.006Z,7.72
2023-01-06T04:36:23.838Z,7.72
2023-01-06T04:36:44.411Z,7.72
2023-01-06T04:37:11.183Z,7.72
2023-01-06T04:37:36.775Z,7.72
2023-01-06T04:37:58.861Z,7.77
2023-01-06T04:38:30.856Z,7.77
2023-01-06T04:39:03.625Z,7.77
2023-01-06T04:39:35.277Z,7.77
2023-01-06T04:40:07.171Z,7.77
2023-01-06T04:40:23.848Z,7.77
2023-01-06T04:40:44.725Z,7.77
2023-01-06T04:41:11.593Z,7.77
2023-01-06T04:41:37.490Z,7.77
2023-01-06T04:41:58.781Z,7.77
2023-01-06T04:42:30.799Z,7.77
2023-01-06T04:43:03.798Z,7.77
2023-01-06T04:43:35.128Z,7.77
2023-01-06T04:44:07.101Z,7.77
2023-01-06T04:44:23.668Z,7.77
2023-01-06T04:44:44.407Z,7.77
2023-01-06T04:45:12.352Z,7.77
2023-01-06T04:45:38.167Z,7.77
2023-01-06T04:45:59.297Z,7.77
2023-01-06T04:46:30.880Z,7.77
2023-01-06T04:47:03.758Z,7.77
2023-01-06T04:47:34.844Z,7.77
2023-01-06T04:48:06.878Z,7.77
2023-01-06T04:48:23.862Z,7.77
2023-01-06T04:48:44.369Z,7.77
2023-01-06T04:49:11.513Z,7.77
2023-01-06T04:49:37.256Z,7.77
2023-01-06T04:49:59.024Z,7.77
2023-01-06T04:50:31.908Z,7.77
2023-01-06T04:51:03.656Z,7.77
2023-01-06T04:51:34.805Z,7.77
2023-01-06T04:52:06.824Z,7.77
2023-01-06T04:52:24.119Z,7.77
2023-01-06T04:52:44.375Z,7.77
2023-01-06T04:53:10.875Z,7.77
2023-01-06T04:53:37.262Z,7.77
2023-01-06T04:53:59.402Z,7.77
2023-01-06T04:54:30.856Z,7.77
2023-01-06T04:55:04.991Z,7.77
2023-01-06T04:55:34.973Z,7.77
2023-01-06T04:56:07.216Z,7.77
2023-01-06T04:56:25.984Z,7.77
2023-01-06T04:56:44.439Z,7.77
2023-01-06T04:57:11.014Z,7.77
2023-01-06T04:57:36.856Z,7.77
2023-01-06T04:57:58.714Z,7.77
2023-01-06T04:58:30.868Z,7.77
2023-01-06T04:59:03.984Z,7.77
2023-01-06T04:59:35.003Z,7.77
2023-01-06T05:00:09.489Z,7.77
2023-01-06T05:00:23.912Z,7.77
2023-01-06T05:00:45.401Z,7.77
2023-01-06T05:01:11.547Z,7.77
2023-01-06T05:01:37.156Z,7.77
2023-01-06T05:01:58.783Z,7.77
2023-01-06T05:02:30.792Z,7.77
2023-01-06T05:03:03.780Z,7.77
2023-01-06T05:03:35.458Z,7.77
2023-01-06T05:04:07.078Z,7.88
2023-01-06T05:04:24.478Z,7.88
2023-01-06T05:04:47.885Z,7.88
2023-01-06T05:05:11.307Z,7.88
2023-01-06T05:05:36.822Z,7.88
2023-01-06T05:05:59.209Z,7.88
2023-01-06T05:06:30.824Z,7.88
2023-01-06T05:07:04.036Z,7.88
2023-01-06T05:07:34.912Z,7.88
2023-01-06T05:08:07.123Z,8.00
2023-01-06T05:08:24.280Z,8.00
2023-01-06T05:08:44.550Z,8.00
2023-01-06T05:09:11.254Z,8.00
2023-01-06T05:09:36.844Z,8.00
2023-01-06T05:09:59.407Z,8.00
2023-01-06T05:10:31.326Z,8.00
2023-01-06T05:11:03.769Z,8.00
2023-01-06T05:11:34.846Z,8.00
2023-01-06T05:12:06.856Z,8.00
2023-01-06T05:12:23.962Z,8.00
2023-01-06T05:12:44.462Z,8.00
2023-01-06T05:13:10.866Z,8.00
2023-01-06T05:13:37.233Z,8.00
2023-01-06T05:13:58.951Z,8.00
2023-01-06T05:14:30.867Z,8.00
2023-01-06T05:15:10.596Z,8.00
2023-01-06T05:15:34.925Z,8.00
2023-01-06T05:16:06.970Z,8.00
2023-01-06T05:16:24.076Z,8.00
2023-01-06T05:16:44.481Z,8.00
2023-01-06T05:17:10.919Z,8.00
2023-01-06T05:17:37.066Z,8.00
2023-01-06T05:17:59.019Z,8.00
2023-01-06T05:18:31.076Z,7.88
2023-01-06T05:19:04.033Z,7.88
2023-01-06T05:19:34.866Z,7.88
2023-01-06T05:20:08.792Z,7.88
2023-01-06T05:20:23.875Z,7.88
2023-01-06T05:20:45.667Z,7.88
2023-01-06T05:21:11.240Z,7.88
2023-01-06T05:21:36.843Z,7.88
2023-01-06T05:21:58.781Z,7.88
2023-01-06T05:22:31.163Z,7.77
2023-01-06T05:23:03.974Z,7.77
2023-01-06T05:23:34.895Z,7.77
2023-01-06T05:24:06.801Z,7.77
2023-01-06T05:24:23.837Z,7.77
2023-01-06T05:24:44.500Z,7.77
2023-01-06T05:25:11.525Z,7.77
2023-01-06T05:25:37.182Z,7.77
2023-01-06T05:25:59.182Z,7.77
2023-01-06T05:26:30.822Z,7.77
2023-01-06T05:27:03.957Z,7.77
2023-01-06T05:27:35.547Z,7.77
2023-01-06T05:28:06.881Z,7.77
2023-01-06T05:28:23.723Z,7.77
2023-01-06T05:28:44.437Z,7.77
2023-01-06T05:29:11.399Z,7.77
2023-01-06T05:29:36.978Z,7.77
2023-01-06T05:29:59.232Z,7.77
2023-01-06T05:30:31.726Z,7.77
2023-01-06T05:31:04.163Z,7.77
2023-01-06T05:31:36.181Z,7.77
2023-01-06T05:32:06.924Z,7.77
2023-01-06T05:32:23.848Z,7.77
2023-01-06T05:32:44.473Z,7.77
2023-01-06T05:33:11.155Z,7.77
2023-01-06T05:33:37.315Z,7.77
2023-01-06T05:33:58.862Z,7.77
2023-01-06T05:34:30.818Z,7.77
2023-01-06T05:35:05.069Z,7.77
2023-01-06T05:35:35.568Z,7.77
2023-01-06T05:36:06.899Z,7.77
2023-01-06T05:36:23.855Z,7.77
2023-01-06T05:36:44.499Z,7.77
2023-01-06T05:37:10.989Z,7.77
2023-01-06T05:37:37.026Z,7.77
2023-01-06T05:37:58.865Z,7.88
2023-01-06T05:38:32.882Z,7.88
2023-01-06T05:39:03.777Z,7.88
2023-01-06T05:39:34.933Z,7.88
2023-01-06T05:40:07.626Z,7.88
2023-01-06T05:40:23.770Z,7.88
2023-01-06T05:40:44.911Z,7.88
2023-01-06T05:41:10.911Z,7.88
2023-01-06T05:41:36.875Z,7.88
2023-01-06T05:41:59.020Z,8.00
2023-01-06T05:42:30.893Z,8.00
2023-01-06T05:43:04.066Z,8.00
2023-01-06T05:43:34.809Z,8.00
2023-01-06T05:44:07.118Z,8.00
2023-01-06T05:44:23.926Z,8.00
2023-01-06T05:44:44.551Z,8.00
2023-01-06T05:45:11.734Z,8.00
2023-01-06T05:45:37.007Z,8.00
2023-01-06T05:45:59.603Z,8.11
2023-01-06T05:46:30.904Z,8.11
2023-01-06T05:47:03.755Z,8.11
2023-01-06T05:47:34.977Z,8.11
2023-01-06T05:48:06.873Z,8.11
2023-01-06T05:48:24.036Z,8.11
2023-01-06T05:48:45.176Z,8.11
2023-01-06T05:49:10.881Z,8.11
2023-01-06T05:49:36.889Z,8.11
2023-01-06T05:49:58.905Z,8.11
2023-01-06T05:50:31.267Z,8.11
2023-01-06T05:51:03.761Z,8.11
2023-01-06T05:51:35.023Z,8.11
2023-01-06T05:52:07.892Z,8.11
2023-01-06T05:52:24.108Z,8.11
2023-01-06T05:52:44.427Z,8.11
2023-01-06T05:53:11.256Z,8.11
2023-01-06T05:53:36.701Z,8.11
2023-01-06T05:53:59.096Z,8.11
2023-01-06T05:54:30.895Z,8.11
2023-01-06T05:55:05.195Z,8.11